Relevés horaires Bierset (Belgique)


Relevés horaires à Bierset - Mercredi 07 Juin 2023
Heure UTC1 Température [°C] Vent [km/h] Hum. [%] Pres.4 [hPa] Visi. [Km] Nébu. [octa] Préc.5 [mm] Cond.
2m. Res. Ros. Dir.2 Vit. Moy. Raf.3
23:00 14.4 14.4 12.1 N 3.7 3.7 3.7 86 1018.3(0.0/3h) 15 1/8 -- --
22:00 15.0 15.0 12.3 N 3.7 3.7 3.7 84 1018.4(0.2/3h) 15 2/8 -- --
21:00 15.8 15.8 12.5 N 1.9 7.4 9.3 81 1018.2(0.0/3h) 15 3/8 -- --
20:00 16.5 16.5 12.5 NE 5.6 5.6 9.3 77 1018.1(-0.3/3h) 15 1/8 -- --
19:00 18.3 18.3 12.6 NE 5.6 7.4 9.3 69 1017.9(-0.4/3h) 25 1/8 -- --
18:00 18.7 18.7 12.5 NE 7.4 13.0 16.7 67 1018(-0.7/3h) 25 6/8 0/12h
--
17:00 18.8 18.8 12.0 NE 11.1 11.1 16.7 65 1018.2(-1.1/3h) 25 7/8 -- --
16:00 20.0 20.0 11.5 NNE 11.1 13.0 16.7 58 1018.3(-1.3/3h) 20 6/8 -- --
15:00 20.3 20.3 12.2 NNE 7.4 9.3 13.0 60 1018.6(-1.1/3h) 20 4/8 -- --
14:00 18.0 18.0 11.7 N 7.4 9.3 11.1 67 1019.4(-0.7/3h) 20 7/8 -- --
13:00 18.7 18.7 12.2 NNE 7.4 9.3 11.1 66 1019.6(-0.5/3h) 20 7/8 -- --
12:00 19.5 19.5 13.1 N 7.4 9.3 13.0 67 1019.8(0.1/3h) 20 7/8 0/6h
--
11:00 19.3 19.3 13.2 N 5.6 7.4 11.1 68 1019.9(0.1/3h) 20 7/8 -- --
10:00 17.5 17.5 12.6 NNE 5.6 7.4 9.3 73 1020.2(0.4/3h) 20 7/8 -- --
09:00 17.5 17.5 12.4 NE 5.6 5.6 9.3 72 1020.1(0.7/3h) 20 7/8 -- --
08:00 16.3 16.3 12.3 NE 5.6 5.6 7.4 77 1020.3(1.0/3h) 20 6/8 -- --
07:00 15.1 15.1 11.9 NNE 5.6 5.6 7.4 81 1020(0.6/3h) 25 6/8 -- --
06:00 14.7 14.7 12.0 N 3.7 9.3 18.5 84 1019.6(0.2/3h) 25 6/8 0/12h
--
05:00 13.9 13.9 11.5 NE 5.6 5.6 11.1 85 1019.5(0.1/3h) 25 6/8 -- --
04:00 14.3 14.3 11.5 NE 5.6 7.4 9.3 83 1019.4(0.0/3h) 25 7/8 -- --
03:00 14.6 14.6 11.5 NE 5.6 9.3 18.5 82 1019.4(-0.1/3h) 25 6/8 -- --
02:00 15.2 15.2 11.6 NE 7.4 7.4 11.1 79 1019.2(-0.2/3h) 25 7/8 -- --
01:00 15.9 15.9 11.2 NE 7.4 9.3 16.7 74 1019.3(-0.1/3h) 30 6/8 -- --
00:00 16.0 16.0 9.4 NE 5.6 9.3 18.5 65 1019.4(0.1/3h) 30 6/8 0/6h
0/24h
--

1 Coordinated Universal Time. Actuellement il est 23:00 locale et 21:00 UTC.

2 Le vent souffle depuis la direction indiquée vers la direction oposée.

3 Les rafales max. sont disponible 40 min après l'heure du relevé.

4 Pour les stations d'altitude (plus de 600m) le géopotentiel du niveau le plus proche de la pression obligatoire est indiqué.

5 Les stations disposant d'un diffuseur peuvent indiquer "trace". Cela signifie que des précipitations ont touchés le sol mais que la quantité est inférieure à 0.1 mm.

Récapitulatif de la journée
Température [°C] Vent [km/h] Ensoleillement4 [h] Precipitations totale5 [mm] Pression [Hpa]
Min1 Max.2 Moy.3 Max. Min Max.
13.9 20.7 8 18.5 0 h 0 min 0 1017.9 1020.3

1 Température minimale relevée entre 18:00 UTC la veille et 18:00 UTC le jour donné.

2 Température maximale relevée entre 06:00 UTC le jour donné et 06:00 UTC le lendemain.

3 Vent moyen de la journée basé sur les relevés horaires.

4 Ensoleillement en heures relevé entre 06:00 UTC la veille et 06:00 UTC le jour donné.

5 Précipitations totales tombées entre 06:00 UTC la jour donné et 06:00 UTC le lendemain.

Graphiques horaires